Chesterland, Ohio
Current Conditions -  °F | °C
As of 11:45 AM on Friday 24 Oct 2014 (Local Time) from KCGF Reporting Station
Broken Clouds Broken Clouds  
Wind Chill: 55°   Ceiling: 25000
Heat Index: 55°   Visibility: 7mi
Dew Point: 43°   Wind: 12mph
Humidity: 63%   Direction: 310°NW
Pressure: 30.09"   Gusts: NA
Location:  41.52°N, 81.34°W
Report Text: KCGF 241545Z 31010KT 7SM BKN250 13/06 A3009
Loading
Personal Weather Stations






























Interactive Weather Map New forecast layout! Learn more

10-Day Weather Forecast

Advertisements
Track Severe Weather on mobile